Time;durP1;ratioP1;P1;durP2;ratioP2;P2;SDS_P1;SDS_P2;PMS_P1;PMS_P2;Temp;Humidity;BMP_temperature;BMP_pressure;BME280_temperature;BME280_humidity;BME280_pressure;Samples;Min_cycle;Max_cycle;Signal;HPM_P1;HPM_P2
2022/12/30 00:00:53;;;;;;;10.82;4.22;;;;;;;5.73;87.04;98246.38;5024539;28;20025;-76
2022/12/30 00:03:18;;;;;;;16.08;4.05;;;;;;;5.78;86.22;98254.44;5028846;28;20060;-76
2022/12/30 00:05:44;;;;;;;10.38;2.80;;;;;;;5.83;87.12;98259.06;5023172;28;20029;-76
2022/12/30 00:08:45;;;;;;;6.80;2.67;;;;;;;5.80;87.18;98256.84;5031230;28;20096;-76
2022/12/30 00:10:54;;;;;;;15.43;2.97;;;;;;;5.82;86.43;98262.72;5026820;28;20472;-76
2022/12/30 00:35:17;;;;;;;7.57;2.63;;;;;;;5.64;86.57;98279.53;5027319;28;20040;-76
2022/12/30 00:37:42;;;;;;;10.60;2.55;;;;;;;5.60;85.86;98274.94;5023464;28;20025;-75
2022/12/30 00:40:09;;;;;;;8.55;2.58;;;;;;;5.68;86.34;98296.56;5026432;28;20034;-74
2022/12/30 00:45:19;;;;;;;6.35;2.50;;;;;;;5.63;86.40;98301.78;5025888;28;20516;-74
2022/12/30 00:47:45;;;;;;;10.02;2.80;;;;;;;5.49;86.56;98303.03;5028473;28;20040;-75
2022/12/30 00:58:23;;;;;;;8.77;2.50;;;;;;;5.61;86.84;98316.28;5026914;28;20041;-75
2022/12/30 01:00:49;;;;;;;13.52;2.72;;;;;;;5.68;86.18;98332.84;5024423;28;20037;-75
2022/12/30 01:03:14;;;;;;;10.70;2.60;;;;;;;5.60;86.24;98339.28;5031056;28;20565;-76
2022/12/30 01:05:40;;;;;;;5.80;2.58;;;;;;;5.60;86.73;98333.16;5025166;28;20026;-74
2022/12/30 01:08:06;;;;;;;9.98;2.47;;;;;;;5.58;86.53;98343.19;5027596;28;20538;-76
2022/12/30 01:10:31;;;;;;;8.10;3.10;;;;;;;5.61;85.70;98343.56;5026621;28;20413;-77
2022/12/30 01:12:56;;;;;;;7.28;3.15;;;;;;;5.70;86.27;98344.81;5031209;28;20127;-75
2022/12/30 01:15:22;;;;;;;6.90;2.30;;;;;;;5.56;86.58;98346.06;5028777;28;20041;-75
2022/12/30 01:17:48;;;;;;;7.93;2.55;;;;;;;5.60;87.07;98354.34;5029123;28;20482;-75
2022/12/30 01:20:13;;;;;;;12.23;2.60;;;;;;;5.64;85.71;98372.19;5032661;28;20504;-77
2022/12/30 01:22:40;;;;;;;9.85;2.78;;;;;;;5.69;86.21;98372.31;5028953;28;20103;-75
2022/12/30 01:25:05;;;;;;;9.75;2.72;;;;;;;5.68;86.38;98376.00;5028978;28;20033;-76
2022/12/30 01:27:32;;;;;;;9.43;2.50;;;;;;;5.69;86.26;98374.97;5029446;28;20084;-75
2022/12/30 01:29:58;;;;;;;14.35;4.43;;;;;;;5.74;86.58;98372.47;5028103;28;20041;-76
2022/12/30 01:32:24;;;;;;;14.65;3.30;;;;;;;5.71;86.29;98369.44;5034238;28;20036;-75
2022/12/30 01:34:53;;;;;;;7.50;2.28;;;;;;;5.60;85.69;98380.81;5029418;28;20068;-77
2022/12/30 01:37:19;;;;;;;19.10;3.20;;;;;;;5.59;86.52;98374.72;5026284;28;20485;-75
2022/12/30 01:39:45;;;;;;;7.90;2.63;;;;;;;5.67;86.29;98392.94;5026597;28;20037;-76
2022/12/30 01:42:20;;;;;;;10.60;2.53;;;;;;;5.63;86.15;98396.25;5028147;28;20025;-76
2022/12/30 01:44:49;;;;;;;8.90;3.10;;;;;;;5.67;86.46;98397.41;5026500;28;20091;-77
2022/12/30 01:47:53;;;;;;;15.30;3.10;;;;;;;5.70;86.25;98402.25;5028935;28;20075;-75
2022/12/30 01:50:33;;;;;;;9.27;2.75;;;;;;;5.69;86.27;98403.28;5024186;28;20493;-75
2022/12/30 01:53:16;;;;;;;9.23;2.92;;;;;;;5.67;86.47;98398.22;5021554;28;20100;-76
2022/12/30 01:55:48;;;;;;;18.35;4.70;;;;;;;5.58;85.78;98402.22;5023743;28;20032;-77
2022/12/30 01:58:23;;;;;;;9.38;3.55;;;;;;;5.60;86.16;98410.75;5027050;28;20021;-75
2022/12/30 02:00:48;;;;;;;8.63;3.35;;;;;;;5.62;86.80;98411.31;5028737;28;20028;-76
2022/12/30 02:03:14;;;;;;;7.38;2.90;;;;;;;5.68;86.72;98407.75;5028694;28;20029;-75
2022/12/30 02:05:42;;;;;;;14.45;3.83;;;;;;;5.69;87.31;98412.03;5041875;28;20064;-76
2022/12/30 02:08:14;;;;;;;10.52;2.55;;;;;;;5.58;86.60;98412.81;5023152;28;21544;-75
2022/12/30 02:10:44;;;;;;;11.00;3.25;;;;;;;5.63;86.30;98412.13;5023126;28;20033;-76
2022/12/30 02:13:13;;;;;;;11.18;3.50;;;;;;;5.66;86.56;98415.13;5027256;28;20033;-75
2022/12/30 02:16:19;;;;;;;11.98;3.53;;;;;;;5.60;85.75;98410.75;5023850;28;20033;-76
2022/12/30 02:19:03;;;;;;;8.13;3.10;;;;;;;5.60;86.20;98415.22;5004496;28;20064;-75
2022/12/30 02:21:53;;;;;;;5.45;2.65;;;;;;;5.65;86.00;98421.47;5028261;28;20386;-77
2022/12/30 02:24:18;;;;;;;8.40;2.75;;;;;;;5.59;86.59;98417.06;5026579;28;20172;-75
2022/12/30 02:27:03;;;;;;;9.88;2.78;;;;;;;5.63;85.82;98425.38;5033566;28;20496;-76
2022/12/30 02:29:35;;;;;;;8.55;2.63;;;;;;;5.52;85.59;98415.56;5028157;28;20037;-76
2022/12/30 02:32:23;;;;;;;10.85;2.88;;;;;;;5.63;86.27;98410.31;5024976;28;20347;-75
2022/12/30 02:34:52;;;;;;;8.77;2.70;;;;;;;5.49;85.72;98419.47;5026188;28;20098;-75
2022/12/30 02:37:31;;;;;;;7.18;2.28;;;;;;;5.52;85.52;98418.22;5027740;28;20132;-75
2022/12/30 02:40:05;;;;;;;10.43;2.33;;;;;;;5.43;85.05;98409.78;5026380;28;20026;-76
2022/12/30 02:45:47;;;;;;;6.13;2.45;;;;;;;5.42;85.17;98413.47;5024464;28;20500;-75
2022/12/30 02:48:23;;;;;;;6.75;2.60;;;;;;;5.45;85.63;98417.50;5024767;28;20120;-76
2022/12/30 02:53:38;;;;;;;9.40;3.75;;;;;;;5.56;85.71;98420.19;5025000;28;20032;-78
2022/12/30 02:56:04;;;;;;;6.45;2.70;;;;;;;5.63;85.17;98414.78;5025564;28;20053;-76
2022/12/30 02:58:33;;;;;;;7.88;2.65;;;;;;;5.43;85.33;98408.97;5021826;28;20029;-74
2022/12/30 03:04:37;;;;;;;10.70;2.40;;;;;;;5.52;86.33;98413.72;5027158;28;20083;-76
2022/12/30 03:07:08;;;;;;;11.38;3.58;;;;;;;5.52;86.00;98413.72;5023873;28;20432;-75
2022/12/30 03:11:12;;;;;;;8.32;2.75;;;;;;;5.57;85.66;98416.50;5032043;28;20057;-76
2022/12/30 03:12:43;;;;;;;11.82;2.75;;;;;;;5.55;85.63;98410.63;5026458;28;20034;-76
2022/12/30 03:15:15;;;;;;;8.30;2.78;;;;;;;5.60;85.81;98413.41;5023000;28;20069;-75
2022/12/30 03:17:42;;;;;;;6.70;2.50;;;;;;;5.57;86.47;98413.06;5026192;28;20460;-76
2022/12/30 03:20:12;;;;;;;12.52;2.75;;;;;;;5.55;85.83;98417.78;5025625;28;20067;-76
2022/12/30 03:28:13;;;;;;;16.50;3.60;;;;;;;5.44;85.38;98421.19;5024862;28;20040;-76
2022/12/30 03:30:50;;;;;;;12.20;3.15;;;;;;;5.55;86.39;98415.13;5026554;28;20032;-76
2022/12/30 03:33:16;;;;;;;9.85;2.63;;;;;;;5.51;85.64;98416.59;5028033;28;20552;-76
2022/12/30 03:35:51;;;;;;;12.32;2.70;;;;;;;5.56;85.99;98414.88;5025136;28;20030;-75
2022/12/30 03:38:21;;;;;;;4.67;2.37;;;;;;;5.55;85.67;98423.06;5023843;28;20024;-74
2022/12/30 03:40:50;;;;;;;6.35;2.28;;;;;;;5.57;85.08;98421.78;5025941;28;20281;-75
2022/12/30 03:43:16;;;;;;;10.77;2.78;;;;;;;5.60;86.38;98433.75;5026999;28;20041;-76
2022/12/30 03:45:41;;;;;;;11.25;2.80;;;;;;;5.64;85.37;98425.16;5025542;28;20030;-75
2022/12/30 03:48:06;;;;;;;12.40;4.10;;;;;;;5.49;85.80;98427.41;5028340;28;20060;-76
2022/12/30 03:50:32;;;;;;;13.32;3.03;;;;;;;5.50;85.20;98425.56;5025410;28;20164;-76
2022/12/30 03:52:57;;;;;;;9.25;2.53;;;;;;;5.33;85.23;98428.84;5026246;28;20072;-76
2022/12/30 03:55:22;;;;;;;8.27;2.53;;;;;;;5.58;86.50;98435.84;5021668;28;20029;-76
2022/12/30 03:57:48;;;;;;;15.65;2.92;;;;;;;5.66;86.55;98438.13;5028502;28;20158;-76
2022/12/30 04:00:13;;;;;;;9.27;2.92;;;;;;;5.56;85.30;98440.53;5026675;28;20080;-75
2022/12/30 04:02:39;;;;;;;10.40;2.88;;;;;;;5.47;85.49;98442.72;5026040;28;20053;-75
2022/12/30 04:05:08;;;;;;;9.00;2.67;;;;;;;5.62;85.35;98450.22;5022611;28;20037;-76
2022/12/30 04:07:34;;;;;;;12.45;2.80;;;;;;;5.53;85.18;98440.97;5025066;28;20036;-74
2022/12/30 04:09:59;;;;;;;12.48;2.95;;;;;;;5.57;85.19;98450.91;5014420;28;20026;-76
2022/12/30 04:12:25;;;;;;;13.43;3.35;;;;;;;5.59;85.67;98448.03;5026144;28;20041;-76
2022/12/30 04:14:50;;;;;;;7.70;2.25;;;;;;;5.59;85.73;98448.81;5033373;28;20041;-77
2022/12/30 04:17:15;;;;;;;7.50;2.25;;;;;;;5.46;85.58;98456.19;5032161;28;20082;-75
2022/12/30 04:19:41;;;;;;;8.43;2.22;;;;;;;5.63;85.56;98465.91;5033382;28;20041;-76
2022/12/30 04:22:06;;;;;;;11.95;2.90;;;;;;;5.62;85.41;98463.47;5034348;28;20170;-75
2022/12/30 04:24:31;;;;;;;11.98;2.95;;;;;;;5.43;85.28;98449.50;5031601;28;21669;-76
2022/12/30 04:26:57;;;;;;;13.63;3.10;;;;;;;5.32;85.27;98452.91;5032770;28;20560;-76
2022/12/30 04:29:22;;;;;;;17.77;3.38;;;;;;;5.36;85.73;98454.06;5032753;28;20508;-74
2022/12/30 04:31:47;;;;;;;6.90;2.38;;;;;;;5.32;86.02;98456.34;5030268;28;20431;-76
2022/12/30 04:34:14;;;;;;;10.13;3.38;;;;;;;5.29;85.79;98463.91;5030714;28;20140;-75
2022/12/30 04:36:41;;;;;;;15.63;2.92;;;;;;;5.32;84.80;98471.41;5030987;28;20029;-75
2022/12/30 04:39:08;;;;;;;9.57;2.88;;;;;;;5.36;85.92;98471.78;5026592;28;20082;-77
2022/12/30 04:41:34;;;;;;;10.98;2.97;;;;;;;5.05;85.21;98470.94;4998146;28;20029;-76
2022/12/30 04:44:04;;;;;;;11.00;2.88;;;;;;;5.18;85.16;98480.53;5029892;28;20026;-74
2022/12/30 04:46:30;;;;;;;10.88;2.97;;;;;;;5.17;85.77;98477.13;5027266;28;20457;-74
2022/12/30 04:48:55;;;;;;;7.00;2.38;;;;;;;5.21;85.34;98482.75;5033552;28;20061;-76
2022/12/30 04:51:21;;;;;;;11.98;3.33;;;;;;;5.04;86.59;98481.75;5030564;28;20124;-74
2022/12/30 04:53:46;;;;;;;12.77;2.60;;;;;;;5.02;86.77;98483.81;5028357;28;20063;-76
2022/12/30 04:56:12;;;;;;;15.05;3.58;;;;;;;5.10;86.44;98483.50;5026824;28;21724;-76
2022/12/30 04:58:38;;;;;;;8.35;3.00;;;;;;;5.23;85.37;98489.44;5010557;28;20033;-76
2022/12/30 05:01:03;;;;;;;7.78;2.95;;;;;;;5.01;86.04;98490.13;5033647;28;20033;-76
2022/12/30 05:03:29;;;;;;;5.32;2.58;;;;;;;5.07;86.24;98502.44;5034801;28;20083;-75
2022/12/30 05:05:54;;;;;;;15.25;3.17;;;;;;;5.03;86.28;98488.88;5033836;28;20070;-76
2022/12/30 05:08:20;;;;;;;6.50;2.80;;;;;;;4.93;85.36;98501.81;5033331;28;20080;-76
2022/12/30 05:10:45;;;;;;;12.20;3.00;;;;;;;5.03;85.78;98498.63;5033558;28;20037;-74
2022/12/30 05:13:11;;;;;;;18.63;3.03;;;;;;;5.02;85.29;98495.19;5027811;28;20036;-76
2022/12/30 05:15:36;;;;;;;14.38;3.15;;;;;;;5.07;85.87;98497.16;5027492;28;20041;-74
2022/12/30 05:18:01;;;;;;;13.60;2.90;;;;;;;5.07;86.15;98507.75;5035964;28;20039;-76
2022/12/30 05:20:27;;;;;;;14.23;3.33;;;;;;;4.99;86.24;98514.16;5027004;28;20136;-76
2022/12/30 05:22:52;;;;;;;8.32;2.55;;;;;;;5.06;85.93;98517.53;5029585;28;20486;-76
2022/12/30 05:28:01;;;;;;;11.43;2.63;;;;;;;4.88;86.23;98529.94;5026848;28;20443;-76
2022/12/30 05:30:27;;;;;;;10.80;2.53;;;;;;;4.85;85.38;98525.09;5028173;28;20482;-76
2022/12/30 05:32:52;;;;;;;7.10;2.35;;;;;;;4.92;85.58;98526.63;5027957;28;20100;-75
2022/12/30 05:35:18;;;;;;;9.27;2.45;;;;;;;4.68;86.82;98529.31;5027420;28;20592;-74
2022/12/30 05:37:43;;;;;;;15.07;3.25;;;;;;;4.81;86.70;98539.75;5025239;28;20112;-75
2022/12/30 05:40:10;;;;;;;6.10;2.65;;;;;;;4.80;86.50;98528.41;5031079;28;20040;-76
2022/12/30 05:42:36;;;;;;;16.48;3.30;;;;;;;4.60;86.40;98525.13;5030326;28;20094;-76
2022/12/30 05:45:02;;;;;;;4.38;2.05;;;;;;;4.78;86.65;98521.72;5028153;28;20112;-75
2022/12/30 05:47:27;;;;;;;9.65;2.60;;;;;;;4.79;86.73;98529.41;5024302;28;20034;-75
2022/12/30 05:49:53;;;;;;;16.58;3.22;;;;;;;4.60;87.21;98533.06;5027990;28;20443;-75
2022/12/30 05:52:18;;;;;;;8.77;2.50;;;;;;;4.86;86.22;98539.91;5025928;28;20457;-75
2022/12/30 05:54:44;;;;;;;11.02;2.80;;;;;;;4.81;87.01;98534.47;5028160;28;20025;-74
2022/12/30 05:57:10;;;;;;;13.82;3.38;;;;;;;4.58;86.86;98535.13;5012082;28;20029;-76
2022/12/30 05:59:35;;;;;;;14.43;2.72;;;;;;;4.50;87.71;98549.41;5031023;28;20493;-76
2022/12/30 06:02:01;;;;;;;8.48;2.80;;;;;;;4.59;87.71;98541.22;5027849;28;20037;-74
2022/12/30 06:04:29;;;;;;;13.25;2.60;;;;;;;4.69;87.56;98555.56;5027832;28;20033;-75
2022/12/30 06:06:54;;;;;;;12.55;2.58;;;;;;;4.75;87.42;98538.00;5027129;28;20057;-75
2022/12/30 06:09:20;;;;;;;17.08;3.20;;;;;;;4.59;87.07;98552.56;5030293;28;20052;-76
2022/12/30 06:11:45;;;;;;;12.10;2.70;;;;;;;4.57;86.01;98552.81;5029265;28;20060;-76
2022/12/30 06:14:14;;;;;;;8.35;2.58;;;;;;;4.62;86.88;98549.50;5029387;28;20033;-75
2022/12/30 06:16:40;;;;;;;10.98;2.58;;;;;;;4.63;87.48;98560.91;5025278;28;20061;-75
2022/12/30 06:19:05;;;;;;;9.45;3.05;;;;;;;4.37;87.15;98549.53;5027885;28;20417;-76
2022/12/30 06:21:31;;;;;;;10.50;3.15;;;;;;;4.67;87.67;98548.88;5031275;28;20077;-75
2022/12/30 06:23:56;;;;;;;12.45;2.85;;;;;;;4.59;87.01;98543.88;5030131;28;20504;-74
2022/12/30 06:26:22;;;;;;;6.80;2.63;;;;;;;4.76;86.87;98551.00;5030182;28;20025;-77
2022/12/30 06:28:47;;;;;;;9.45;2.75;;;;;;;4.72;86.24;98549.03;5032093;28;20025;-76
2022/12/30 06:31:12;;;;;;;13.25;3.70;;;;;;;4.55;87.26;98546.94;5021500;28;20784;-76
2022/12/30 06:33:38;;;;;;;8.82;2.78;;;;;;;4.78;86.73;98567.47;5029298;28;20494;-74
2022/12/30 06:36:03;;;;;;;8.55;2.80;;;;;;;4.65;87.40;98556.19;5025331;28;20232;-75
2022/12/30 06:38:29;;;;;;;9.65;3.10;;;;;;;4.62;87.68;98557.44;5027688;28;20028;-73
2022/12/30 06:40:54;;;;;;;14.95;2.80;;;;;;;4.64;87.46;98563.31;5029255;28;20040;-73
2022/12/30 06:43:20;;;;;;;15.65;2.90;;;;;;;4.30;86.91;98555.91;5024196;28;20025;-74
2022/12/30 06:45:45;;;;;;;14.27;4.05;;;;;;;4.59;87.25;98554.44;5040242;28;20106;-75
2022/12/30 06:48:11;;;;;;;9.20;2.55;;;;;;;4.41;87.80;98547.28;5026334;28;20108;-75
2022/12/30 06:50:36;;;;;;;6.22;2.67;;;;;;;4.31;86.64;98553.03;5029225;28;20036;-74
2022/12/30 06:53:03;;;;;;;12.27;3.10;;;;;;;4.34;87.03;98547.31;5029932;28;20025;-75
2022/12/30 06:55:28;;;;;;;15.98;3.47;;;;;;;4.48;87.77;98553.28;5021291;28;20104;-74
2022/12/30 06:57:54;;;;;;;8.90;2.72;;;;;;;4.54;86.31;98569.09;5027718;28;20144;-74
2022/12/30 07:00:19;;;;;;;15.02;2.58;;;;;;;4.61;86.87;98558.44;5027282;28;20052;-76
2022/12/30 07:02:44;;;;;;;12.55;2.90;;;;;;;4.57;86.71;98559.91;5027063;28;20079;-76
2022/12/30 07:05:10;;;;;;;7.60;2.35;;;;;;;4.56;86.29;98558.31;5019870;28;20049;-75
2022/12/30 07:07:35;;;;;;;10.30;2.83;;;;;;;4.42;86.40;98565.53;5026672;28;20053;-74
2022/12/30 07:10:01;;;;;;;6.00;2.45;;;;;;;4.54;87.24;98563.78;5023264;28;20084;-76
2022/12/30 07:12:26;;;;;;;11.02;2.85;;;;;;;4.57;87.08;98554.63;5021077;28;20041;-74
2022/12/30 07:14:51;;;;;;;10.48;2.65;;;;;;;4.61;86.35;98558.44;5026205;28;20504;-74
2022/12/30 07:17:17;;;;;;;7.53;2.85;;;;;;;4.64;86.81;98563.31;5025613;28;20025;-74
2022/12/30 07:19:43;;;;;;;10.20;2.70;;;;;;;4.44;86.96;98542.34;5025710;28;20040;-74
2022/12/30 07:22:08;;;;;;;15.20;3.92;;;;;;;4.57;86.46;98555.44;5027626;28;20114;-73
2022/12/30 07:24:33;;;;;;;10.32;2.55;;;;;;;4.62;86.25;98544.22;5028194;28;20067;-74
2022/12/30 07:26:59;;;;;;;12.40;3.30;;;;;;;4.71;87.02;98557.97;5024213;28;21006;-72
2022/12/30 07:29:24;;;;;;;8.98;2.65;;;;;;;4.63;86.81;98566.19;5027165;28;20034;-76
2022/12/30 07:31:49;;;;;;;8.15;3.72;;;;;;;4.63;86.16;98571.47;5020099;28;20040;-76
2022/12/30 07:34:15;;;;;;;14.18;3.38;;;;;;;4.61;86.95;98570.88;5026510;28;20117;-74
2022/12/30 07:36:40;;;;;;;8.95;2.90;;;;;;;4.61;86.48;98562.94;5024897;28;20120;-74
2022/12/30 07:39:06;;;;;;;19.45;3.67;;;;;;;4.55;86.62;98568.06;5025796;28;20388;-74
2022/12/30 07:41:33;;;;;;;7.90;2.78;;;;;;;4.62;87.12;98561.91;5027151;28;20442;-76
2022/12/30 07:43:58;;;;;;;13.48;3.40;;;;;;;4.69;86.52;98570.59;5026117;28;20030;-74
2022/12/30 07:46:24;;;;;;;7.07;2.72;;;;;;;4.63;87.19;98577.53;5022811;28;20032;-74
2022/12/30 07:48:49;;;;;;;7.57;3.22;;;;;;;4.56;87.77;98580.25;5027921;28;20029;-75
2022/12/30 07:51:16;;;;;;;12.20;3.50;;;;;;;4.67;86.13;98588.50;5007450;28;20457;-74
2022/12/30 07:53:42;;;;;;;9.98;2.78;;;;;;;4.28;86.85;98574.56;5025787;28;20531;-74
2022/12/30 07:56:10;;;;;;;13.55;4.40;;;;;;;4.53;87.46;98579.88;5025564;28;20167;-77
2022/12/30 07:58:35;;;;;;;14.73;2.67;;;;;;;4.46;87.49;98576.47;5024023;28;20083;-75
2022/12/30 08:01:10;;;;;;;13.50;3.75;;;;;;;4.43;87.44;98563.72;5025584;28;20041;-76
2022/12/30 08:03:35;;;;;;;13.32;3.05;;;;;;;4.48;87.66;98577.06;5027891;28;20025;-73
2022/12/30 08:06:09;;;;;;;13.10;2.88;;;;;;;4.48;88.36;98569.13;5024171;28;20064;-75
2022/12/30 08:08:35;;;;;;;11.98;2.80;;;;;;;4.53;87.27;98556.09;5023854;28;20398;-76
2022/12/30 08:11:02;;;;;;;11.95;3.03;;;;;;;4.53;86.79;98556.09;5027091;28;20045;-75
2022/12/30 08:13:30;;;;;;;10.00;2.50;;;;;;;4.43;87.41;98555.78;5025690;28;20029;-74
2022/12/30 08:15:56;;;;;;;12.13;4.03;;;;;;;4.33;87.17;98543.06;5025310;28;20037;-75
2022/12/30 08:18:21;;;;;;;17.13;4.28;;;;;;;4.56;86.84;98556.47;5022042;28;20084;-75
2022/12/30 08:20:46;;;;;;;14.55;3.13;;;;;;;4.48;87.32;98553.28;5025501;28;20037;-74
2022/12/30 08:23:12;;;;;;;11.55;3.05;;;;;;;4.48;87.53;98553.28;5024975;28;20480;-76
2022/12/30 08:25:37;;;;;;;10.93;2.80;;;;;;;4.47;87.06;98541.94;5023106;28;20025;-74
2022/12/30 08:28:03;;;;;;;5.30;2.42;;;;;;;4.47;88.11;98546.41;5026486;28;20048;-74
2022/12/30 08:30:28;;;;;;;12.70;3.22;;;;;;;4.46;87.47;98544.75;5023932;28;20149;-74
2022/12/30 08:32:54;;;;;;;12.90;3.05;;;;;;;4.52;87.55;98544.72;5026663;28;20260;-74
2022/12/30 08:35:19;;;;;;;12.95;2.97;;;;;;;4.48;87.43;98538.25;5018169;28;20032;-75
2022/12/30 08:37:44;;;;;;;10.25;2.70;;;;;;;4.54;87.57;98540.00;5022820;28;20027;-74
2022/12/30 08:40:10;;;;;;;12.52;3.22;;;;;;;4.55;87.50;98533.72;5022809;28;20025;-75
2022/12/30 08:42:36;;;;;;;10.30;2.97;;;;;;;4.52;87.74;98536.78;5023119;28;20033;-73
2022/12/30 08:45:03;;;;;;;13.05;2.55;;;;;;;4.56;87.56;98537.19;5018869;28;20159;-74
2022/12/30 08:47:29;;;;;;;6.97;2.45;;;;;;;4.53;87.35;98538.41;5023973;28;20390;-74
2022/12/30 08:49:54;;;;;;;14.75;2.55;;;;;;;4.49;87.04;98533.78;5016809;28;20029;-73
2022/12/30 08:52:19;;;;;;;8.85;1.90;;;;;;;4.59;88.16;98549.16;5020436;28;20080;-75
2022/12/30 08:54:45;;;;;;;9.45;2.28;;;;;;;4.63;86.74;98550.31;5022758;28;20048;-73
2022/12/30 08:57:11;;;;;;;16.55;3.53;;;;;;;4.52;87.23;98528.84;5018463;28;20036;-75
2022/12/30 08:59:37;;;;;;;13.88;2.42;;;;;;;4.65;87.27;98548.28;5024002;28;20045;-74
2022/12/30 09:02:02;;;;;;;13.15;2.88;;;;;;;4.68;86.75;98550.47;5024403;28;20033;-75
2022/12/30 09:04:28;;;;;;;10.25;2.25;;;;;;;4.71;86.58;98548.22;5023640;28;20037;-75
2022/12/30 09:06:53;;;;;;;16.98;3.70;;;;;;;4.64;86.57;98538.72;5022645;28;20455;-76
2022/12/30 09:09:20;;;;;;;7.00;2.58;;;;;;;4.68;87.86;98545.19;5023241;28;20462;-75
2022/12/30 09:11:45;;;;;;;7.40;2.50;;;;;;;4.72;87.51;98544.53;5027435;28;20037;-73
2022/12/30 09:14:12;;;;;;;18.92;5.07;;;;;;;4.65;86.74;98537.69;5026487;28;20056;-73
2022/12/30 09:16:38;;;;;;;7.97;2.90;;;;;;;4.73;87.57;98542.69;5028346;28;20091;-75
2022/12/30 09:19:03;;;;;;;17.73;7.75;;;;;;;4.68;87.96;98534.59;5030144;28;20506;-75
2022/12/30 09:21:29;;;;;;;6.82;2.03;;;;;;;4.76;87.87;98534.34;5025490;28;20041;-74
2022/12/30 09:23:54;;;;;;;7.53;2.35;;;;;;;4.76;87.52;98529.84;5024857;28;20060;-74
2022/12/30 09:26:23;;;;;;;7.53;2.38;;;;;;;4.82;88.31;98536.91;5024444;28;20124;-73
2022/12/30 09:28:49;;;;;;;8.73;2.22;;;;;;;4.83;87.36;98524.47;5023231;28;20041;-75
2022/12/30 09:31:14;;;;;;;8.55;3.00;;;;;;;4.85;87.40;98525.09;5025296;28;20025;-72
2022/12/30 09:33:40;;;;;;;8.85;1.70;;;;;;;4.88;87.99;98519.34;5025033;28;20029;-72
2022/12/30 09:36:06;;;;;;;8.75;2.50;;;;;;;4.93;87.13;98509.75;5023553;28;20035;-72
2022/12/30 09:38:33;;;;;;;11.27;2.80;;;;;;;4.96;87.40;98501.34;5020981;28;20797;-74
2022/12/30 09:41:04;;;;;;;10.27;2.35;;;;;;;4.97;87.48;98512.75;5022460;28;20653;-73
2022/12/30 09:43:56;;;;;;;10.35;4.35;;;;;;;4.92;87.85;98513.41;5026005;28;20036;-73
2022/12/30 09:46:45;;;;;;;31.67;12.07;;;;;;;4.99;87.72;98515.97;5012650;28;20065;-73
2022/12/30 09:49:36;;;;;;;35.60;14.13;;;;;;;5.04;87.50;98503.72;5028322;28;20099;-73
2022/12/30 09:52:20;;;;;;;12.30;3.90;;;;;;;5.10;86.93;98502.03;5026924;28;20121;-73
2022/12/30 09:54:53;;;;;;;14.95;5.75;;;;;;;5.17;87.34;98503.56;5027727;28;20025;-74
2022/12/30 09:57:33;;;;;;;15.05;6.63;;;;;;;5.17;87.17;98503.56;5017956;28;20047;-74
2022/12/30 10:00:03;;;;;;;31.38;15.02;;;;;;;5.03;86.72;98498.63;5028262;28;20056;-75
2022/12/30 10:02:34;;;;;;;26.35;12.80;;;;;;;5.19;86.48;98490.09;5024797;28;20080;-75
2022/12/30 10:04:59;;;;;;;20.38;6.28;;;;;;;5.21;87.22;98498.63;5030855;28;20021;-74
2022/12/30 10:07:52;;;;;;;17.70;6.70;;;;;;;5.33;86.19;98491.53;5024286;28;20071;-75
2022/12/30 10:10:31;;;;;;;13.27;4.35;;;;;;;5.38;85.91;98486.41;5023634;28;20021;-73
2022/12/30 10:13:19;;;;;;;20.48;4.40;;;;;;;5.39;85.67;98484.56;5029928;28;20056;-75
2022/12/30 10:16:31;;;;;;;13.85;5.47;;;;;;;5.40;85.63;98478.22;5021637;28;20108;-72
2022/12/30 10:19:12;;;;;;;11.50;5.10;;;;;;;5.47;86.05;98484.25;4999765;28;20052;-74
2022/12/30 10:21:55;;;;;;;12.55;4.03;;;;;;;5.64;85.28;98479.91;5019650;28;20044;-73
2022/12/30 10:24:47;;;;;;;11.80;4.68;;;;;;;5.62;85.70;98474.03;5028479;28;20055;-73
2022/12/30 10:27:50;;;;;;;14.95;5.65;;;;;;;5.65;85.91;98466.47;5029922;28;20021;-75
2022/12/30 10:30:21;;;;;;;12.13;4.15;;;;;;;5.61;86.30;98465.31;5020916;28;20052;-74
2022/12/30 10:32:56;;;;;;;11.40;4.28;;;;;;;5.71;86.31;98454.97;5028859;28;20033;-76
2022/12/30 10:35:23;;;;;;;13.30;7.60;;;;;;;5.73;85.69;98449.44;5029241;28;20033;-77
2022/12/30 10:37:54;;;;;;;11.15;5.00;;;;;;;5.82;85.96;98440.16;5027738;28;20017;-78
2022/12/30 10:40:27;;;;;;;8.80;3.58;;;;;;;5.93;85.98;98437.56;5028267;28;20567;-74
2022/12/30 10:43:01;;;;;;;11.73;4.25;;;;;;;5.94;85.50;98435.72;5031821;28;20048;-75
2022/12/30 10:45:26;;;;;;;10.30;3.70;;;;;;;5.89;85.66;98425.00;5025198;28;20037;-77
2022/12/30 10:48:01;;;;;;;19.15;6.93;;;;;;;5.98;84.88;98419.13;5026388;28;20544;-78
2022/12/30 10:50:44;;;;;;;8.98;4.65;;;;;;;5.99;84.79;98423.38;5024682;28;20067;-76
2022/12/30 10:53:18;;;;;;;6.57;3.65;;;;;;;6.07;84.47;98416.16;5025237;28;20033;-76
2022/12/30 10:55:56;;;;;;;11.73;4.15;;;;;;;5.95;84.44;98402.88;5029724;28;20040;-74
2022/12/30 10:58:34;;;;;;;82.20;38.58;;;;;;;5.99;84.66;98404.03;5023177;28;20393;-77
2022/12/30 11:01:01;;;;;;;15.25;7.93;;;;;;;6.04;83.51;98410.28;5023303;28;20040;-74
2022/12/30 11:03:29;;;;;;;12.05;3.60;;;;;;;6.09;83.82;98403.47;5027254;28;20041;-77
2022/12/30 11:05:55;;;;;;;12.73;2.85;;;;;;;6.05;82.68;98395.16;5026237;28;20159;-77
2022/12/30 11:08:24;;;;;;;8.52;4.03;;;;;;;6.09;83.55;98377.78;5025614;28;20030;-74
2022/12/30 11:11:02;;;;;;;30.50;13.95;;;;;;;6.09;82.77;98377.78;5024834;28;20037;-73
2022/12/30 11:16:13;;;;;;;12.00;5.47;;;;;;;6.14;82.74;98366.50;5026070;28;20112;-76
2022/12/30 11:18:44;;;;;;;9.90;3.35;;;;;;;6.15;83.36;98360.16;5025008;28;20060;-75
2022/12/30 11:21:09;;;;;;;11.98;3.53;;;;;;;6.15;83.11;98350.38;5023712;28;20049;-73
2022/12/30 11:23:40;;;;;;;9.60;2.90;;;;;;;6.21;83.05;98349.44;5027604;28;20087;-74
2022/12/30 11:26:19;;;;;;;9.00;3.25;;;;;;;6.27;83.14;98345.84;5027636;28;20079;-74
2022/12/30 11:28:53;;;;;;;8.73;3.03;;;;;;;6.25;83.92;98333.84;5027437;28;20382;-76
2022/12/30 11:31:19;;;;;;;10.77;4.00;;;;;;;6.22;83.55;98329.03;5028697;28;20053;-74
2022/12/30 11:33:54;;;;;;;7.88;4.10;;;;;;;6.25;83.67;98321.41;5026258;28;20060;-73
2022/12/30 11:36:29;;;;;;;13.15;3.38;;;;;;;6.39;82.58;98319.31;5022722;28;20026;-76
2022/12/30 11:39:03;;;;;;;9.93;2.70;;;;;;;6.41;82.56;98312.75;5021390;28;20087;-75
2022/12/30 11:41:33;;;;;;;10.85;2.80;;;;;;;6.37;82.91;98308.97;5018228;28;20035;-75
2022/12/30 11:43:58;;;;;;;11.40;2.63;;;;;;;6.50;82.28;98300.75;5022658;28;20425;-77
2022/12/30 11:46:30;;;;;;;13.93;3.13;;;;;;;6.35;82.84;98286.38;5025408;28;20060;-77
2022/12/30 11:49:01;;;;;;;7.60;3.67;;;;;;;6.35;82.92;98294.34;5019431;28;20025;-77
2022/12/30 11:51:45;;;;;;;8.38;1.98;;;;;;;6.36;82.05;98282.69;5022480;28;20040;-74
2022/12/30 11:54:10;;;;;;;13.93;3.40;;;;;;;6.37;82.40;98281.66;5030382;28;20033;-73
2022/12/30 11:56:37;;;;;;;10.02;3.40;;;;;;;6.43;81.93;98280.72;5026438;28;20029;-77
2022/12/30 11:59:16;;;;;;;9.30;2.88;;;;;;;6.42;81.36;98282.53;5025500;28;20029;-75
2022/12/30 12:01:52;;;;;;;11.48;4.03;;;;;;;6.48;81.49;98284.28;5022389;28;20386;-75
2022/12/30 12:04:37;;;;;;;7.03;2.55;;;;;;;6.54;81.73;98278.03;5013877;28;20474;-73
2022/12/30 12:07:18;;;;;;;9.80;2.55;;;;;;;6.52;82.42;98274.81;5010889;28;20096;-75
2022/12/30 12:09:50;;;;;;;9.02;2.72;;;;;;;6.58;82.48;98265.09;5006445;28;20398;-75
2022/12/30 12:12:18;;;;;;;9.30;2.45;;;;;;;6.51;82.19;98264.44;5006885;28;20021;-74
2022/12/30 12:15:01;;;;;;;13.35;3.47;;;;;;;6.58;83.01;98265.09;5006453;28;20501;-74
2022/12/30 12:17:44;;;;;;;9.63;2.50;;;;;;;6.51;82.93;98251.19;5013578;28;20029;-74
2022/12/30 12:20:40;;;;;;;5.70;2.00;;;;;;;6.59;82.73;98240.19;5018306;28;20030;-77
2022/12/30 12:23:08;;;;;;;6.28;2.85;;;;;;;6.48;82.48;98241.88;5016782;28;20049;-74
2022/12/30 12:25:41;;;;;;;9.77;2.65;;;;;;;6.50;83.31;98228.38;5024072;28;20481;-74
2022/12/30 12:28:10;;;;;;;11.23;3.67;;;;;;;6.54;82.47;98221.53;5018428;28;20040;-76
2022/12/30 12:31:17;;;;;;;7.90;3.30;;;;;;;6.59;82.30;98232.25;5020147;28;20112;-77
2022/12/30 12:34:05;;;;;;;7.50;3.42;;;;;;;6.48;82.42;98212.69;5020879;28;20040;-75
2022/12/30 12:36:43;;;;;;;15.35;5.78;;;;;;;6.45;82.43;98207.88;5029448;28;20497;-74
2022/12/30 12:39:24;;;;;;;21.60;7.55;;;;;;;6.61;82.51;98206.28;5027613;28;20492;-75
2022/12/30 12:42:00;;;;;;;21.65;9.38;;;;;;;6.45;82.46;98196.44;5013783;28;20041;-75